Time;durP1;ratioP1;P1;durP2;ratioP2;P2;SDS_P1;SDS_P2;PMS_P1;PMS_P2;Temp;Humidity;BMP_temperature;BMP_pressure;BME280_temperature;BME280_humidity;BME280_pressure;Samples;Min_cycle;Max_cycle;Signal;HPM_P1;HPM_P2
2023/12/28 00:03:29;;;;;;;;;;;;;;;7.95;79.54;101279.44;10378124;28;97041;-85
2023/12/28 00:08:34;;;;;;;;;;;;;;;7.97;79.50;101270.69;10377722;28;96945;-84
2023/12/28 00:13:44;;;;;;;;;;;;;;;7.97;78.86;101273.31;10377554;28;96698;-84
2023/12/28 00:18:51;;;;;;;;;;;;;;;7.95;79.54;101279.44;10377783;28;96667;-85
2023/12/28 00:23:57;;;;;;;;;;;;;;;8.00;79.84;101282.88;10377892;28;97121;-86
2023/12/28 00:29:01;;;;;;;;;;;;;;;8.04;79.55;101275.84;10377837;28;97106;-84
2023/12/28 00:34:07;;;;;;;;;;;;;;;8.05;79.64;101272.34;10377149;28;97051;-84
2023/12/28 00:39:13;;;;;;;;;;;;;;;8.07;79.45;101276.66;10377229;28;97288;-86
2023/12/28 00:44:19;;;;;;;;;;;;;;;8.07;79.66;101270.53;10375460;28;96651;-86
2023/12/28 00:49:25;;;;;;;;;;;;;;;8.06;79.62;101259.22;10376155;28;96991;-86
2023/12/28 00:54:29;;;;;;;;;;;;;;;8.04;79.20;101249.63;10376205;28;96661;-84
2023/12/28 00:59:37;;;;;;;;;;;;;;;8.05;79.17;101246.13;10376209;28;96692;-86
2023/12/28 01:04:43;;;;;;;;;;;;;;;8.06;79.79;101229.50;10350479;28;97001;-86
2023/12/28 01:09:47;;;;;;;;;;;;;;;7.98;79.50;101222.63;10376164;28;97197;-85
2023/12/28 01:14:55;;;;;;;;;;;;;;;8.02;79.40;101201.59;10375637;28;97157;-83
2023/12/28 01:20:03;;;;;;;;;;;;;;;7.99;79.89;101169.28;10375901;28;96647;-85
2023/12/28 01:25:11;;;;;;;;;;;;;;;7.99;79.90;101144.88;10375050;28;96840;-87
2023/12/28 01:30:15;;;;;;;;;;;;;;;8.02;79.61;101171.03;10375355;28;96978;-86
2023/12/28 01:35:22;;;;;;;;;;;;;;;8.06;79.03;101198.94;10374033;28;96757;-85
2023/12/28 01:40:28;;;;;;;;;;;;;;;8.10;78.77;101218.09;10374861;28;97433;-86
2023/12/28 01:45:33;;;;;;;;;;;;;;;8.11;78.81;101210.22;10375021;28;96965;-85
2023/12/28 01:50:41;;;;;;;;;;;;;;;8.13;78.71;101211.06;10374733;28;96808;-85
2023/12/28 01:55:49;;;;;;;;;;;;;;;8.14;79.35;101225.00;10373959;28;96826;-85
2023/12/28 02:00:52;;;;;;;;;;;;;;;8.13;78.69;101223.28;10378429;28;97072;-83
2023/12/28 02:06:02;;;;;;;;;;;;;;;8.09;79.01;101219.84;10415605;28;96633;-83
2023/12/28 02:11:06;;;;;;;;;;;;;;;8.06;79.18;101222.53;10412484;28;97183;-86
2023/12/28 02:16:12;;;;;;;;;;;;;;;8.07;79.29;101241.72;10372091;28;97341;-84
2023/12/28 02:21:17;;;;;;;;;;;;;;;8.12;79.06;101256.50;10359504;28;96914;-85
2023/12/28 02:26:26;;;;;;;;;;;;;;;8.07;78.97;101232.09;10330847;28;96907;-84
2023/12/28 02:31:34;;;;;;;;;;;;;;;8.09;79.03;101230.34;10364429;28;97462;-86
2023/12/28 02:36:44;;;;;;;;;;;;;;;8.09;79.43;101200.63;10372875;28;98468;-85
2023/12/28 02:41:51;;;;;;;;;;;;;;;8.13;79.20;101204.94;10395939;28;97268;-85
2023/12/28 02:46:55;;;;;;;;;;;;;;;8.14;79.48;101196.19;10395438;28;96690;-84
2023/12/28 02:52:01;;;;;;;;;;;;;;;8.13;79.10;101215.44;10372479;28;96679;-85
2023/12/28 02:57:11;;;;;;;;;;;;;;;8.17;79.19;101240.72;10372298;28;97412;-86
2023/12/28 03:02:17;;;;;;;;;;;;;;;8.18;79.48;101232.84;10394327;28;96786;-86
2023/12/28 03:07:21;;;;;;;;;;;;;;;8.16;79.49;101236.34;10372014;28;96590;-86
2023/12/28 03:12:30;;;;;;;;;;;;;;;8.18;78.96;101234.56;10371966;28;97286;-86
2023/12/28 03:17:36;;;;;;;;;;;;;;;8.24;78.87;101230.09;10370554;28;96664;-86
2023/12/28 03:22:43;;;;;;;;;;;;;;;8.32;78.99;101223.00;10371524;28;97175;-86
2023/12/28 03:27:49;;;;;;;;;;;;;;;8.33;78.90;101237.84;10370915;28;97228;-86
2023/12/28 03:32:53;;;;;;;;;;;;;;;8.36;78.81;101235.16;10372058;28;96754;-87
2023/12/28 03:37:57;;;;;;;;;;;;;;;8.35;78.97;101237.81;10371236;28;97237;-85
2023/12/28 03:43:07;;;;;;;;;;;;;;;8.34;78.63;101234.31;10371431;28;96652;-83
2023/12/28 03:48:11;;;;;;;;;;;;;;;8.33;78.38;101235.22;10371120;28;97092;-85
2023/12/28 03:53:16;;;;;;;;;;;;;;;8.29;78.56;101214.31;10370060;28;96913;-85
2023/12/28 03:58:22;;;;;;;;;;;;;;;8.34;78.94;101220.34;10370700;28;97380;-84
2023/12/28 04:03:26;;;;;;;;;;;;;;;8.37;78.75;101215.94;10370963;28;97178;-85
2023/12/28 04:08:30;;;;;;;;;;;;;;;8.41;78.88;101204.47;10369214;28;96796;-86
2023/12/28 04:13:42;;;;;;;;;;;;;;;8.45;78.85;101181.69;10370665;28;97244;-85
2023/12/28 04:18:47;;;;;;;;;;;;;;;8.47;79.17;101201.78;10370119;28;98072;-85
2023/12/28 04:23:51;;;;;;;;;;;;;;;8.46;79.13;101188.69;10370265;28;96780;-86
2023/12/28 04:28:58;;;;;;;;;;;;;;;8.45;79.04;101198.31;10369386;28;97059;-85
2023/12/28 04:34:03;;;;;;;;;;;;;;;8.43;78.78;101178.25;10369820;28;97415;-84
2023/12/28 04:39:10;;;;;;;;;;;;;;;8.47;78.51;101188.66;10370910;28;96587;-86
2023/12/28 04:44:16;;;;;;;;;;;;;;;8.43;78.98;101180.88;10377364;28;97598;-87
2023/12/28 04:49:22;;;;;;;;;;;;;;;8.42;78.84;101176.50;10388861;28;97341;-86
2023/12/28 04:54:27;;;;;;;;;;;;;;;8.43;78.93;101183.50;10384653;28;96889;-86
2023/12/28 04:59:41;;;;;;;;;;;;;;;8.45;79.49;101174.72;10446485;22;97014;-86
2023/12/28 05:04:57;;;;;;;;;;;;;;;8.46;79.70;101172.97;10418026;28;96951;-85
2023/12/28 05:10:12;;;;;;;;;;;;;;;8.49;78.98;101173.78;10417924;28;96626;-85
2023/12/28 05:15:27;;;;;;;;;;;;;;;;;;;;;
2023/12/28 05:20:46;;;;;;;;;;;;;;;8.56;79.33;101175.41;10417644;28;97488;-86
2023/12/28 05:25:59;;;;;;;;;;;;;;;8.60;78.69;101177.06;10416932;28;96916;-86
2023/12/28 05:31:42;;;;;;;;;;;;;;;8.60;78.46;101158.69;10408444;28;96927;-87
2023/12/28 05:37:10;;;;;;;;;;;;;;;8.57;79.35;101174.50;10417666;28;96710;-84
2023/12/28 05:42:22;;;;;;;;;;;;;;;8.55;79.11;101162.31;10416342;28;97193;-86
2023/12/28 05:52:53;;;;;;;;;;;;;;;8.57;79.41;101178.88;10379190;27;97153;-86
2023/12/28 05:58:18;;;;;;;;;;;;;;;8.57;78.95;101171.00;10415779;28;97135;-86
2023/12/28 06:03:43;;;;;;;;;;;;;;;8.59;78.79;101169.22;10416023;28;96997;-86
2023/12/28 06:08:53;;;;;;;;;;;;;;;8.67;79.01;101164.72;10415448;28;96962;-86
2023/12/28 06:14:06;;;;;;;;;;;;;;;8.65;78.89;101162.09;10373963;28;96702;-86
2023/12/28 06:19:20;;;;;;;;;;;;;;;8.74;79.29;101172.44;10373811;28;96907;-84
2023/12/28 06:24:28;;;;;;;;;;;;;;;8.69;78.94;101158.56;10374127;28;96767;-86
2023/12/28 06:29:59;;;;;;;;;;;;;;;8.68;79.23;101154.22;10407698;28;97386;-86
2023/12/28 06:35:21;;;;;;;;;;;;;;;8.68;78.88;101169.94;10414988;28;97337;-85
2023/12/28 06:40:41;;;;;;;;;;;;;;;8.74;79.24;101198.69;10414674;28;97643;-86
2023/12/28 06:46:03;;;;;;;;;;;;;;;8.79;79.30;101217.84;10413367;28;96766;-86
2023/12/28 06:51:11;;;;;;;;;;;;;;;8.84;79.71;101216.00;10414514;27;97094;-86
2023/12/28 06:56:22;;;;;;;;;;;;;;;8.90;78.78;101220.28;10414148;28;97199;-86
2023/12/28 07:01:48;;;;;;;;;;;;;;;8.96;78.86;101233.31;10413170;27;96821;-86
2023/12/28 07:07:12;;;;;;;;;;;;;;;;;;;;;
2023/12/28 07:12:20;;;;;;;;;;;;;;;8.92;78.94;101224.63;10413892;28;97292;-86
2023/12/28 07:17:30;;;;;;;;;;;;;;;8.90;78.80;101223.78;10413511;28;96999;-85
2023/12/28 07:22:44;;;;;;;;;;;;;;;8.81;79.10;101229.19;10414496;28;97203;-84
2023/12/28 07:28:05;;;;;;;;;;;;;;;8.81;78.62;101228.31;10413059;28;96578;-86
2023/12/28 07:33:18;;;;;;;;;;;;;;;8.83;79.24;101227.41;10413416;28;97129;-86
2023/12/28 07:38:26;;;;;;;;;;;;;;;8.88;78.86;101238.69;10411932;28;96557;-86
2023/12/28 07:43:44;;;;;;;;;;;;;;;8.84;78.94;101230.91;10412746;28;96867;-86
2023/12/28 07:48:51;;;;;;;;;;;;;;;8.84;78.46;101247.50;10412496;28;97547;-84
2023/12/28 07:53:58;;;;;;;;;;;;;;;8.79;79.15;101253.75;10412525;28;96894;-86
2023/12/28 07:59:09;;;;;;;;;;;;;;;8.83;79.35;101250.16;10412373;28;97080;-85
2023/12/28 08:15:22;;;;;;;;;;;;;;;8.91;78.80;101259.63;10414493;28;96588;-85
2023/12/28 08:20:29;;;;;;;;;;;;;;;8.94;78.64;101258.72;10418444;28;96752;-86
2023/12/28 08:25:35;;;;;;;;;;;;;;;8.87;79.33;101252.72;10419690;28;97214;-84
2023/12/28 08:30:41;;;;;;;;;;;;;;;8.95;78.42;101258.69;10418128;28;96683;-85
2023/12/28 08:35:54;;;;;;;;;;;;;;;8.96;78.39;101270.91;10418098;28;97131;-87
2023/12/28 08:41:10;;;;;;;;;;;;;;;8.97;79.11;101262.16;10419153;28;96817;-84
2023/12/28 08:46:16;;;;;;;;;;;;;;;9.03;79.30;101263.81;10418211;27;97023;-85
2023/12/28 08:51:26;;;;;;;;;;;;;;;9.08;78.67;101277.72;10418276;28;97339;-86
2023/12/28 09:02:09;;;;;;;;;;;;;;;9.11;79.03;101278.53;10415624;28;96675;-87
2023/12/28 09:07:19;;;;;;;;;;;;;;;9.10;78.69;101287.28;10418642;28;96598;-86
2023/12/28 09:12:39;;;;;;;;;;;;;;;9.16;78.89;101296.84;10418131;28;96737;-87
2023/12/28 09:17:55;;;;;;;;;;;;;;;9.20;78.23;101300.28;10417607;28;97463;-84
2023/12/28 09:23:00;;;;;;;;;;;;;;;9.10;78.84;101300.44;10416234;28;97233;-86
2023/12/28 09:28:11;;;;;;;;;;;;;;;9.21;78.29;101296.78;10416508;27;96911;-86
2023/12/28 09:38:36;;;;;;;;;;;;;;;9.10;78.98;101305.69;10396580;28;97021;-85
2023/12/28 09:44:05;;;;;;;;;;;;;;;9.17;79.15;101318.72;10416403;28;96680;-87
2023/12/28 09:49:36;;;;;;;;;;;;;;;;;;;;;
2023/12/28 09:55:04;;;;;;;;;;;;;;;9.26;79.61;101324.69;10407230;28;97292;-86
2023/12/28 10:00:27;;;;;;;;;;;;;;;9.23;79.54;101329.97;10416543;28;97173;-85
2023/12/28 10:05:43;;;;;;;;;;;;;;;9.23;79.17;101331.72;10416471;28;97074;-85
2023/12/28 10:10:59;;;;;;;;;;;;;;;9.26;79.05;101315.97;10415902;28;96634;-86
2023/12/28 10:16:13;;;;;;;;;;;;;;;9.30;79.10;101325.50;10415069;28;96643;-85
2023/12/28 10:21:28;;;;;;;;;;;;;;;9.26;79.20;101316.81;10416324;28;97220;-87
2023/12/28 10:26:34;;;;;;;;;;;;;;;9.34;78.71;101330.69;10415119;28;96610;-84
2023/12/28 10:31:51;;;;;;;;;;;;;;;9.47;78.98;101315.56;10415114;28;96645;-85
2023/12/28 10:37:09;;;;;;;;;;;;;;;9.53;78.21;101320.72;10413996;27;97137;-87
2023/12/28 10:42:31;;;;;;;;;;;;;;;9.51;79.54;101322.50;10414456;28;97053;-86
2023/12/28 10:48:07;;;;;;;;;;;;;;;9.61;79.14;101321.44;10414610;28;96669;-86
2023/12/28 10:53:23;;;;;;;;;;;;;;;9.69;79.00;101306.41;10415665;28;97206;-85
2023/12/28 10:58:42;;;;;;;;;;;;;;;9.85;78.61;101313.94;10413530;28;96812;-88
2023/12/28 11:03:57;;;;;;;;;;;;;;;9.87;78.37;101298.16;10414111;28;96929;-86
2023/12/28 11:09:34;;;;;;;;;;;;;;;9.94;78.25;101286.59;10413046;28;97121;-84
2023/12/28 11:14:48;;;;;;;;;;;;;;;9.94;77.56;101273.47;10414252;28;97158;-85
2023/12/28 11:20:06;;;;;;;;;;;;;;;10.06;78.00;101278.47;10413119;28;96649;-86
2023/12/28 11:25:28;;;;;;;;;;;;;;;9.97;78.12;101271.63;10413542;28;96727;-86
2023/12/28 11:30:51;;;;;;;;;;;;;;;10.06;77.90;101267.94;10413058;28;97159;-85
2023/12/28 11:36:12;;;;;;;;;;;;;;;10.32;77.15;101268.25;10408798;28;97582;-87
2023/12/28 11:41:22;;;;;;;;;;;;;;;10.51;76.45;101266.94;10404186;28;96893;-86
2023/12/28 11:51:56;;;;;;;;;;;;;;;10.65;76.05;101243.78;10416832;27;96841;-87
2023/12/28 11:57:01;;;;;;;;;;;;;;;10.74;75.90;101234.78;10420441;28;97363;-85
2023/12/28 12:02:07;;;;;;;;;;;;;;;10.82;75.20;101233.69;10418910;28;96608;-85
2023/12/28 12:07:11;;;;;;;;;;;;;;;10.71;75.60;101219.97;10419694;28;97305;-87
2023/12/28 12:12:18;;;;;;;;;;;;;;;10.65;76.35;101222.72;10419990;28;97136;-86
2023/12/28 12:17:22;;;;;;;;;;;;;;;10.57;76.54;101214.16;10419414;28;97289;-85
2023/12/28 12:22:27;;;;;;;;;;;;;;;10.67;76.37;101212.16;10418968;28;96714;-86
2023/12/28 12:27:38;;;;;;;;;;;;;;;10.65;76.08;101208.69;10419393;28;96608;-86
2023/12/28 12:32:43;;;;;;;;;;;;;;;10.62;76.29;101204.38;10418852;28;97236;-85
2023/12/28 12:37:49;;;;;;;;;;;;;;;10.54;76.26;101198.41;10450309;27;97176;-86
2023/12/28 12:43:00;;;;;;;;;;;;;;;10.51;76.39;101201.13;10404156;28;97400;-85
2023/12/28 12:48:05;;;;;;;;;;;;;;;10.57;76.25;101193.09;10418378;28;96748;-85
2023/12/28 12:53:11;;;;;;;;;;;;;;;10.61;77.10;101186.84;10418484;28;96899;-87
2023/12/28 12:58:25;;;;;;;;;;;;;;;10.61;76.44;101194.75;10417711;28;97117;-86
2023/12/28 13:03:32;;;;;;;;;;;;;;;10.60;76.88;101203.56;10417333;28;96834;-87
2023/12/28 13:08:39;;;;;;;;;;;;;;;10.67;76.57;101197.22;10417441;28;97203;-88
2023/12/28 13:13:50;;;;;;;;;;;;;;;10.68;76.75;101191.06;10417399;28;97083;-86
2023/12/28 13:18:57;;;;;;;;;;;;;;;10.72;76.98;101195.34;10375258;28;96702;-87
2023/12/28 13:24:05;;;;;;;;;;;;;;;10.80;77.15;101187.28;10376391;28;97393;-87
2023/12/28 13:29:12;;;;;;;;;;;;;;;10.87;77.36;101183.56;10376047;28;96825;-86
2023/12/28 13:34:18;;;;;;;;;;;;;;;10.84;77.39;101179.25;10405983;28;97185;-85
2023/12/28 13:39:22;;;;;;;;;;;;;;;10.84;77.50;101176.59;10417055;28;97424;-84
2023/12/28 13:44:30;;;;;;;;;;;;;;;10.81;77.88;101174.06;10415502;28;96680;-88
2023/12/28 13:49:38;;;;;;;;;;;;;;;10.76;78.85;101167.19;10415898;28;96799;-85
2023/12/28 13:54:42;;;;;;;;;;;;;;;10.69;78.86;101168.25;10415985;28;96710;-85
2023/12/28 13:59:49;;;;;;;;;;;;;;;10.66;79.68;101168.31;10415553;28;96725;-87
2023/12/28 14:04:58;;;;;;;;;;;;;;;10.59;80.53;101165.00;10415688;28;96823;-88
2023/12/28 14:10:03;;;;;;;;;;;;;;;10.47;81.56;101164.41;10417516;28;97315;-92
2023/12/28 14:15:15;;;;;;;;;;;;;;;10.56;81.32;101161.56;10419031;28;96679;-91
2023/12/28 14:20:19;;;;;;;;;;;;;;;10.55;81.87;101165.09;10420048;28;96893;-90
2023/12/28 14:25:25;;;;;;;;;;;;;;;10.49;83.35;101154.72;10420195;28;97413;-90
2023/12/28 14:30:32;;;;;;;;;;;;;;;10.33;82.48;101142.84;10426753;28;96970;-91
2023/12/28 14:35:40;;;;;;;;;;;;;;;10.28;83.31;101138.56;10422310;28;96672;-91
2023/12/28 14:47:35;;;;;;;;;;;;;;;;;;;;;
2023/12/28 14:58:55;;;;;;;;;;;;;;;10.28;84.66;101137.72;10028589;29;97088;-90
2023/12/28 15:10:15;;;;;;;;;;;;;;;10.30;85.07;101137.66;10190085;28;97269;-89
2023/12/28 15:16:07;;;;;;;;;;;;;;;;;;;;;
2023/12/28 15:28:10;;;;;;;;;;;;;;;;;;;;;
2023/12/28 15:45:28;;;;;;;;;;;;;;;;;;;;;
2023/12/28 16:19:53;;;;;;;;;;;;;;;;;;;;;
2023/12/28 16:31:29;;;;;;;;;;;;;;;10.31;85.55;101121.84;10449290;27;97373;-86
2023/12/28 16:43:21;;;;;;;;;;;;;;;10.42;84.81;101125.06;10353965;28;97572;-88
2023/12/28 16:55:05;;;;;;;;;;;;;;;10.34;85.81;101127.03;10373979;28;97063;-88
2023/12/28 17:00:46;;;;;;;;;;;;;;;10.34;85.11;101118.25;10261904;28;100173;-87
2023/12/28 17:12:32;;;;;;;;;;;;;;;;;;;;;
2023/12/28 17:18:12;;;;;;;;;;;;;;;10.22;86.40;101109.78;10404914;28;96942;-88
2023/12/28 17:46:05;;;;;;;;;;;;;;;10.32;86.53;101120.06;10314720;28;96824;-86
2023/12/28 17:51:39;;;;;;;;;;;;;;;10.31;86.19;101127.09;10333686;28;96729;-88
2023/12/28 17:57:14;;;;;;;;;;;;;;;10.30;85.80;101122.72;10313723;28;97726;-85
2023/12/28 18:02:36;;;;;;;;;;;;;;;10.33;85.71;101130.56;10333405;28;97049;-88
2023/12/28 18:19:48;;;;;;;;;;;;;;;10.26;86.34;101139.50;10078420;28;96986;-86
2023/12/28 18:25:34;;;;;;;;;;;;;;;;;;;;;
2023/12/28 18:36:58;;;;;;;;;;;;;;;10.26;87.22;101171.91;10379799;27;96819;-88
2023/12/28 18:47:44;;;;;;;;;;;;;;;10.26;87.12;101181.59;10357667;28;99337;-86
2023/12/28 19:11:21;;;;;;;;;;;;;;;;;;;;;
2023/12/28 19:17:01;;;;;;;;;;;;;;;;;;;;;
2023/12/28 19:22:21;;;;;;;;;;;;;;;10.28;88.36;101214.84;10281322;28;97776;-86
2023/12/28 19:27:49;;;;;;;;;;;;;;;10.26;88.47;101210.53;10327832;28;96922;-87
2023/12/28 19:33:24;;;;;;;;;;;;;;;10.12;88.38;101204.72;10366395;28;97119;-89
2023/12/28 19:44:43;;;;;;;;;;;;;;;10.04;91.20;101211.88;10158246;28;96989;-89
2023/12/28 19:50:12;;;;;;;;;;;;;;;10.04;90.22;101209.25;10136681;28;97309;-88
2023/12/28 19:55:16;;;;;;;;;;;;;;;9.98;91.25;101209.41;10306369;28;97279;-89
2023/12/28 20:00:25;;;;;;;;;;;;;;;10.03;91.11;101210.16;10372006;28;96593;-89
2023/12/28 20:05:34;;;;;;;;;;;;;;;10.04;91.49;101212.75;10404341;28;96847;-89
2023/12/28 20:10:48;;;;;;;;;;;;;;;;;;;;;
2023/12/28 20:15:53;;;;;;;;;;;;;;;10.01;91.79;101220.72;10421707;28;96841;-89
2023/12/28 20:21:02;;;;;;;;;;;;;;;10.08;91.42;101221.44;10420692;27;96816;-88
2023/12/28 20:26:08;;;;;;;;;;;;;;;10.14;90.11;101231.84;10418848;28;96969;-85
2023/12/28 20:31:12;;;;;;;;;;;;;;;10.09;89.28;101228.47;10419236;28;96858;-86
2023/12/28 20:36:26;;;;;;;;;;;;;;;10.09;89.71;101224.03;10419245;28;96763;-87
2023/12/28 20:41:35;;;;;;;;;;;;;;;10.06;89.54;101234.63;10454471;28;96751;-88
2023/12/28 20:46:53;;;;;;;;;;;;;;;9.92;92.09;101241.94;10428048;28;97008;-91
2023/12/28 20:52:00;;;;;;;;;;;;;;;9.90;92.11;101249.00;10422577;28;96874;-91
2023/12/28 20:57:05;;;;;;;;;;;;;;;9.87;93.28;101243.81;10420016;28;96668;-92
2023/12/28 21:02:12;;;;;;;;;;;;;;;9.96;93.08;101245.38;10420030;28;97413;-91
2023/12/28 21:07:22;;;;;;;;;;;;;;;9.94;92.27;101258.56;10417927;28;96667;-90
2023/12/28 21:12:37;;;;;;;;;;;;;;;9.99;92.35;101253.19;10419605;28;96772;-91
2023/12/28 21:17:42;;;;;;;;;;;;;;;10.03;92.69;101255.75;10427554;27;97326;-90
2023/12/28 21:22:51;;;;;;;;;;;;;;;10.04;92.66;101253.97;10431494;27;96645;-91
2023/12/28 21:27:55;;;;;;;;;;;;;;;10.05;93.03;101259.22;10417598;28;96741;-91
2023/12/28 21:33:35;;;;;;;;;;;;;;;;;;;;;
2023/12/28 21:51:00;;;;;;;;;;;;;;;;;;;;;
2023/12/28 21:57:25;;;;;;;;;;;;;;;;;;;;;
2023/12/28 22:14:22;;;;;;;;;;;;;;;10.07;93.06;101252.13;10058954;28;99096;-90
2023/12/28 22:20:26;;;;;;;;;;;;;;;;;;;;;
2023/12/28 22:25:43;;;;;;;;;;;;;;;10.01;93.48;101230.38;10011150;28;97172;-92
2023/12/28 22:30:47;;;;;;;;;;;;;;;10.03;93.57;101233.84;10399268;28;96878;-90
2023/12/28 22:36:25;;;;;;;;;;;;;;;;;;;;;
2023/12/28 22:47:53;;;;;;;;;;;;;;;10.06;94.92;101231.13;10414996;28;96828;-90
2023/12/28 22:53:28;;;;;;;;;;;;;;;10.07;93.78;101246.88;10160575;28;97696;-89
2023/12/28 22:58:33;;;;;;;;;;;;;;;10.12;94.10;101246.78;10279126;28;97027;-90
2023/12/28 23:03:37;;;;;;;;;;;;;;;10.15;93.26;101234.44;10285449;28;96894;-90
2023/12/28 23:08:48;;;;;;;;;;;;;;;10.14;93.02;101234.47;10414372;28;96738;-90
2023/12/28 23:13:54;;;;;;;;;;;;;;;10.10;93.08;101235.44;10386901;28;96976;-91
2023/12/28 23:19:00;;;;;;;;;;;;;;;10.05;93.89;101225.03;10414009;28;97049;-88
2023/12/28 23:24:12;;;;;;;;;;;;;;;10.03;94.98;101218.94;10413678;28;96649;-88
2023/12/28 23:29:18;;;;;;;;;;;;;;;10.01;94.49;101210.22;10412574;28;96792;-87
2023/12/28 23:34:23;;;;;;;;;;;;;;;10.03;93.98;101199.66;10414748;28;97258;-88
2023/12/28 23:39:39;;;;;;;;;;;;;;;10.02;94.39;101190.06;10412937;28;96826;-89
2023/12/28 23:44:43;;;;;;;;;;;;;;;10.03;94.60;101202.28;10412263;28;96774;-88
2023/12/28 23:49:48;;;;;;;;;;;;;;;10.05;95.02;101201.38;10411847;28;96805;-88
2023/12/28 23:54:56;;;;;;;;;;;;;;;10.06;94.64;101181.16;10412863;28;96972;-90
